sensor_id;sensor_type;location;lat;lon;timestamp;pressure;altitude;pressure_sealevel;temperature;humidity
9717;BME280;4897;43.570;27.832;2023-06-22T00:00:48;99282.66;;;19.60;100.00
9717;BME280;4897;43.570;27.832;2023-06-22T00:03:15;99287.53;;;19.64;100.00
9717;BME280;4897;43.570;27.832;2023-06-22T00:05:43;99263.47;;;19.61;100.00
9717;BME280;4897;43.570;27.832;2023-06-22T00:08:10;99302.44;;;19.83;100.00
9717;BME280;4897;43.570;27.832;2023-06-22T00:10:37;99290.75;;;19.82;100.00
9717;BME280;4897;43.570;27.832;2023-06-22T00:13:05;99306.84;;;19.84;100.00
9717;BME280;4897;43.570;27.832;2023-06-22T00:15:33;99303.09;;;19.85;100.00
9717;BME280;4897;43.570;27.832;2023-06-22T00:18:00;99307.13;;;19.89;100.00
9717;BME280;4897;43.570;27.832;2023-06-22T00:20:27;99271.53;;;19.69;100.00
9717;BME280;4897;43.570;27.832;2023-06-22T00:22:57;99295.41;;;19.88;100.00
9717;BME280;4897;43.570;27.832;2023-06-22T00:25:24;99303.19;;;19.77;100.00
9717;BME280;4897;43.570;27.832;2023-06-22T00:27:51;99290.16;;;19.72;100.00
9717;BME280;4897;43.570;27.832;2023-06-22T00:30:19;99285.38;;;19.60;100.00
9717;BME280;4897;43.570;27.832;2023-06-22T00:32:46;99292.59;;;19.67;100.00
9717;BME280;4897;43.570;27.832;2023-06-22T00:35:13;99311.53;;;19.75;100.00
9717;BME280;4897;43.570;27.832;2023-06-22T00:37:40;99278.75;;;19.62;100.00
9717;BME280;4897;43.570;27.832;2023-06-22T00:40:09;99305.41;;;19.73;100.00
9717;BME280;4897;43.570;27.832;2023-06-22T00:42:37;99306.44;;;19.72;100.00
9717;BME280;4897;43.570;27.832;2023-06-22T00:45:05;99280.91;;;19.67;100.00
9717;BME280;4897;43.570;27.832;2023-06-22T00:47:34;99291.94;;;19.65;100.00
9717;BME280;4897;43.570;27.832;2023-06-22T00:50:01;99293.31;;;19.61;100.00
9717;BME280;4897;43.570;27.832;2023-06-22T00:52:29;99237.66;;;19.28;100.00
9717;BME280;4897;43.570;27.832;2023-06-22T00:54:59;99284.44;;;19.67;100.00
9717;BME280;4897;43.570;27.832;2023-06-22T00:57:30;99283.50;;;19.60;100.00
9717;BME280;4897;43.570;27.832;2023-06-22T00:59:57;99285.84;;;19.63;100.00
9717;BME280;4897;43.570;27.832;2023-06-22T01:02:24;99284.19;;;19.62;100.00
9717;BME280;4897;43.570;27.832;2023-06-22T01:04:51;99286.22;;;19.60;100.00
9717;BME280;4897;43.570;27.832;2023-06-22T01:07:25;99294.44;;;19.52;100.00
9717;BME280;4897;43.570;27.832;2023-06-22T01:09:59;99255.22;;;19.40;100.00
9717;BME280;4897;43.570;27.832;2023-06-22T01:12:42;99283.94;;;19.49;100.00
9717;BME280;4897;43.570;27.832;2023-06-22T01:15:13;99262.06;;;19.28;100.00
9717;BME280;4897;43.570;27.832;2023-06-22T01:17:42;99266.34;;;19.45;100.00
9717;BME280;4897;43.570;27.832;2023-06-22T01:20:11;99249.72;;;19.34;100.00
9717;BME280;4897;43.570;27.832;2023-06-22T01:22:48;99268.31;;;19.37;100.00
9717;BME280;4897;43.570;27.832;2023-06-22T01:25:28;99275.63;;;19.51;100.00
9717;BME280;4897;43.570;27.832;2023-06-22T01:28:05;99272.78;;;19.44;100.00
9717;BME280;4897;43.570;27.832;2023-06-22T01:30:43;99254.41;;;19.32;100.00
9717;BME280;4897;43.570;27.832;2023-06-22T01:33:13;99261.28;;;19.42;100.00
9717;BME280;4897;43.570;27.832;2023-06-22T01:35:41;99280.56;;;19.47;100.00
9717;BME280;4897;43.570;27.832;2023-06-22T01:38:09;99284.41;;;19.30;100.00
9717;BME280;4897;43.570;27.832;2023-06-22T01:40:36;99244.13;;;19.27;100.00
9717;BME280;4897;43.570;27.832;2023-06-22T01:43:04;99266.47;;;19.52;100.00
9717;BME280;4897;43.570;27.832;2023-06-22T01:45:32;99265.81;;;19.50;100.00
9717;BME280;4897;43.570;27.832;2023-06-22T01:48:00;99273.69;;;19.59;100.00
9717;BME280;4897;43.570;27.832;2023-06-22T01:50:27;99258.25;;;19.60;100.00
9717;BME280;4897;43.570;27.832;2023-06-22T01:52:55;99256.19;;;19.62;100.00
9717;BME280;4897;43.570;27.832;2023-06-22T01:55:22;99278.56;;;19.78;100.00
9717;BME280;4897;43.570;27.832;2023-06-22T01:57:49;99285.88;;;19.92;100.00
9717;BME280;4897;43.570;27.832;2023-06-22T02:00:19;99273.25;;;19.85;100.00
9717;BME280;4897;43.570;27.832;2023-06-22T02:02:53;99266.31;;;19.82;100.00
9717;BME280;4897;43.570;27.832;2023-06-22T02:05:26;99278.78;;;19.91;100.00
9717;BME280;4897;43.570;27.832;2023-06-22T02:08:01;99295.81;;;19.85;100.00
9717;BME280;4897;43.570;27.832;2023-06-22T02:10:31;99295.91;;;19.77;100.00
9717;BME280;4897;43.570;27.832;2023-06-22T02:12:59;99301.22;;;19.71;100.00
9717;BME280;4897;43.570;27.832;2023-06-22T02:15:27;99291.28;;;19.63;100.00
9717;BME280;4897;43.570;27.832;2023-06-22T02:17:55;99278.09;;;19.60;100.00
9717;BME280;4897;43.570;27.832;2023-06-22T02:20:25;99289.59;;;19.62;100.00
9717;BME280;4897;43.570;27.832;2023-06-22T02:22:54;99271.66;;;19.39;100.00
9717;BME280;4897;43.570;27.832;2023-06-22T02:25:21;99287.75;;;19.40;100.00
9717;BME280;4897;43.570;27.832;2023-06-22T02:27:48;99296.84;;;19.47;100.00
9717;BME280;4897;43.570;27.832;2023-06-22T02:30:15;99299.44;;;19.41;100.00
9717;BME280;4897;43.570;27.832;2023-06-22T02:32:42;99255.34;;;19.01;100.00
9717;BME280;4897;43.570;27.832;2023-06-22T02:35:09;99296.00;;;19.24;100.00
9717;BME280;4897;43.570;27.832;2023-06-22T02:37:38;99316.50;;;19.27;100.00
9717;BME280;4897;43.570;27.832;2023-06-22T02:40:08;99309.94;;;19.21;100.00
9717;BME280;4897;43.570;27.832;2023-06-22T02:42:35;99319.38;;;19.25;100.00
9717;BME280;4897;43.570;27.832;2023-06-22T02:45:03;99268.31;;;18.91;100.00
9717;BME280;4897;43.570;27.832;2023-06-22T02:47:30;99324.41;;;19.36;100.00
9717;BME280;4897;43.570;27.832;2023-06-22T02:49:57;99311.25;;;19.48;100.00
9717;BME280;4897;43.570;27.832;2023-06-22T02:52:24;99325.88;;;19.61;100.00
9717;BME280;4897;43.570;27.832;2023-06-22T02:54:52;99319.13;;;19.57;100.00
9717;BME280;4897;43.570;27.832;2023-06-22T02:57:19;99311.00;;;19.57;100.00
9717;BME280;4897;43.570;27.832;2023-06-22T02:59:46;99323.66;;;19.65;100.00
9717;BME280;4897;43.570;27.832;2023-06-22T03:02:12;99332.50;;;19.81;100.00
9717;BME280;4897;43.570;27.832;2023-06-22T03:04:39;99302.44;;;19.68;100.00
9717;BME280;4897;43.570;27.832;2023-06-22T03:07:06;99322.22;;;19.91;100.00
9717;BME280;4897;43.570;27.832;2023-06-22T03:09:33;99326.16;;;20.04;100.00
9717;BME280;4897;43.570;27.832;2023-06-22T03:12:01;99316.25;;;20.11;100.00
9717;BME280;4897;43.570;27.832;2023-06-22T03:14:28;99327.84;;;20.19;100.00
9717;BME280;4897;43.570;27.832;2023-06-22T03:16:55;99333.44;;;20.18;100.00
9717;BME280;4897;43.570;27.832;2023-06-22T03:19:27;99327.25;;;20.09;100.00
9717;BME280;4897;43.570;27.832;2023-06-22T03:21:57;99327.34;;;20.16;100.00
9717;BME280;4897;43.570;27.832;2023-06-22T03:24:24;99312.56;;;20.18;100.00
9717;BME280;4897;43.570;27.832;2023-06-22T03:26:54;99307.03;;;20.12;100.00
9717;BME280;4897;43.570;27.832;2023-06-22T03:29:22;99327.13;;;20.25;100.00
9717;BME280;4897;43.570;27.832;2023-06-22T03:31:49;99320.00;;;20.39;100.00
9717;BME280;4897;43.570;27.832;2023-06-22T03:34:16;99311.59;;;20.34;100.00
9717;BME280;4897;43.570;27.832;2023-06-22T03:36:42;99314.94;;;20.36;100.00
9717;BME280;4897;43.570;27.832;2023-06-22T03:39:10;99324.78;;;20.37;100.00
9717;BME280;4897;43.570;27.832;2023-06-22T03:41:40;99325.22;;;20.40;100.00
9717;BME280;4897;43.570;27.832;2023-06-22T03:44:07;99328.09;;;20.68;100.00
9717;BME280;4897;43.570;27.832;2023-06-22T03:46:39;99314.25;;;20.78;100.00
9717;BME280;4897;43.570;27.832;2023-06-22T03:49:06;99312.69;;;20.90;100.00
9717;BME280;4897;43.570;27.832;2023-06-22T03:51:33;99328.34;;;21.02;100.00
9717;BME280;4897;43.570;27.832;2023-06-22T03:54:00;99335.22;;;21.19;100.00
9717;BME280;4897;43.570;27.832;2023-06-22T03:56:29;99333.53;;;21.39;100.00
9717;BME280;4897;43.570;27.832;2023-06-22T03:58:56;99327.38;;;21.31;100.00
9717;BME280;4897;43.570;27.832;2023-06-22T04:01:23;99343.06;;;21.50;100.00
9717;BME280;4897;43.570;27.832;2023-06-22T04:03:51;99328.59;;;21.49;100.00
9717;BME280;4897;43.570;27.832;2023-06-22T04:06:18;99347.22;;;21.67;100.00
9717;BME280;4897;43.570;27.832;2023-06-22T04:08:45;99334.31;;;21.55;100.00
9717;BME280;4897;43.570;27.832;2023-06-22T04:11:16;99344.78;;;21.58;100.00
9717;BME280;4897;43.570;27.832;2023-06-22T04:13:43;99342.56;;;21.40;100.00
9717;BME280;4897;43.570;27.832;2023-06-22T04:16:11;99345.72;;;21.22;100.00
9717;BME280;4897;43.570;27.832;2023-06-22T04:18:37;99338.19;;;21.24;100.00
9717;BME280;4897;43.570;27.832;2023-06-22T04:21:06;99341.63;;;21.33;100.00
9717;BME280;4897;43.570;27.832;2023-06-22T04:23:33;99334.06;;;21.28;100.00
9717;BME280;4897;43.570;27.832;2023-06-22T04:26:01;99325.94;;;21.14;100.00
9717;BME280;4897;43.570;27.832;2023-06-22T04:28:28;99347.13;;;21.18;100.00
9717;BME280;4897;43.570;27.832;2023-06-22T04:31:00;99336.44;;;21.17;100.00
9717;BME280;4897;43.570;27.832;2023-06-22T04:33:28;99342.47;;;21.33;100.00
9717;BME280;4897;43.570;27.832;2023-06-22T04:35:55;99349.72;;;21.47;100.00
9717;BME280;4897;43.570;27.832;2023-06-22T04:38:24;99341.19;;;21.51;100.00
9717;BME280;4897;43.570;27.832;2023-06-22T04:40:54;99350.00;;;21.53;100.00
9717;BME280;4897;43.570;27.832;2023-06-22T04:43:21;99342.47;;;21.55;100.00
9717;BME280;4897;43.570;27.832;2023-06-22T04:45:48;99349.38;;;21.57;100.00
9717;BME280;4897;43.570;27.832;2023-06-22T04:48:17;99353.22;;;21.63;100.00
9717;BME280;4897;43.570;27.832;2023-06-22T04:50:44;99350.63;;;21.76;100.00
9717;BME280;4897;43.570;27.832;2023-06-22T04:53:11;99342.41;;;21.69;100.00
9717;BME280;4897;43.570;27.832;2023-06-22T04:55:40;99269.97;;;21.19;100.00
9717;BME280;4897;43.570;27.832;2023-06-22T04:58:11;99347.94;;;22.03;100.00
9717;BME280;4897;43.570;27.832;2023-06-22T05:00:38;99349.03;;;22.09;100.00
9717;BME280;4897;43.570;27.832;2023-06-22T05:03:05;99350.75;;;22.16;100.00
9717;BME280;4897;43.570;27.832;2023-06-22T05:05:36;99295.50;;;21.95;100.00
9717;BME280;4897;43.570;27.832;2023-06-22T05:08:03;99330.38;;;22.47;100.00
9717;BME280;4897;43.570;27.832;2023-06-22T05:10:32;99348.81;;;22.79;100.00
9717;BME280;4897;43.570;27.832;2023-06-22T05:13:00;99331.72;;;23.04;100.00
9717;BME280;4897;43.570;27.832;2023-06-22T05:15:27;99351.59;;;23.85;100.00
9717;BME280;4897;43.570;27.832;2023-06-22T05:17:56;99342.50;;;24.50;100.00
9717;BME280;4897;43.570;27.832;2023-06-22T05:20:23;99346.09;;;25.08;100.00
9717;BME280;4897;43.570;27.832;2023-06-22T05:22:50;99332.97;;;25.16;100.00
9717;BME280;4897;43.570;27.832;2023-06-22T05:25:18;99335.59;;;25.74;100.00
9717;BME280;4897;43.570;27.832;2023-06-22T05:27:45;99342.91;;;26.04;100.00
9717;BME280;4897;43.570;27.832;2023-06-22T05:30:14;99328.59;;;26.02;100.00
9717;BME280;4897;43.570;27.832;2023-06-22T05:32:44;99346.34;;;26.43;100.00
9717;BME280;4897;43.570;27.832;2023-06-22T05:35:12;99342.59;;;26.80;100.00
9717;BME280;4897;43.570;27.832;2023-06-22T05:37:39;99346.38;;;26.79;100.00
9717;BME280;4897;43.570;27.832;2023-06-22T05:40:07;99324.44;;;26.79;100.00
9717;BME280;4897;43.570;27.832;2023-06-22T05:42:35;99350.09;;;27.50;100.00
9717;BME280;4897;43.570;27.832;2023-06-22T05:45:02;99341.56;;;27.40;100.00
9717;BME280;4897;43.570;27.832;2023-06-22T05:47:30;99345.00;;;27.77;100.00
9717;BME280;4897;43.570;27.832;2023-06-22T05:49:57;99340.56;;;28.17;100.00
9717;BME280;4897;43.570;27.832;2023-06-22T05:52:24;99344.50;;;28.56;100.00
9717;BME280;4897;43.570;27.832;2023-06-22T05:54:51;99339.66;;;28.86;100.00
9717;BME280;4897;43.570;27.832;2023-06-22T05:57:18;99342.22;;;29.04;100.00
9717;BME280;4897;43.570;27.832;2023-06-22T05:59:47;99349.47;;;29.34;100.00
9717;BME280;4897;43.570;27.832;2023-06-22T06:02:14;99344.28;;;29.65;100.00
9717;BME280;4897;43.570;27.832;2023-06-22T06:04:42;99341.03;;;29.40;100.00
9717;BME280;4897;43.570;27.832;2023-06-22T06:07:09;99337.41;;;29.51;100.00
9717;BME280;4897;43.570;27.832;2023-06-22T06:09:36;99340.28;;;29.89;100.00
9717;BME280;4897;43.570;27.832;2023-06-22T06:12:03;99351.53;;;30.33;100.00
9717;BME280;4897;43.570;27.832;2023-06-22T06:14:30;99343.72;;;30.85;100.00
9717;BME280;4897;43.570;27.832;2023-06-22T06:16:57;99345.66;;;31.06;97.18
9717;BME280;4897;43.570;27.832;2023-06-22T06:19:24;99329.47;;;30.54;98.29
9717;BME280;4897;43.570;27.832;2023-06-22T06:21:53;99348.03;;;30.37;100.00
9717;BME280;4897;43.570;27.832;2023-06-22T06:24:20;99325.28;;;30.68;100.00
9717;BME280;4897;43.570;27.832;2023-06-22T06:26:47;99329.59;;;31.03;93.01
9717;BME280;4897;43.570;27.832;2023-06-22T06:29:14;99347.94;;;31.35;90.87
9717;BME280;4897;43.570;27.832;2023-06-22T06:31:41;99352.19;;;31.70;77.30
9717;BME280;4897;43.570;27.832;2023-06-22T06:34:08;99340.28;;;31.69;76.34
9717;BME280;4897;43.570;27.832;2023-06-22T06:36:35;99339.09;;;32.18;73.08
9717;BME280;4897;43.570;27.832;2023-06-22T06:39:04;99338.94;;;32.35;67.05
9717;BME280;4897;43.570;27.832;2023-06-22T06:41:31;99335.91;;;32.37;63.47
9717;BME280;4897;43.570;27.832;2023-06-22T06:43:58;99350.63;;;31.79;70.13
9717;BME280;4897;43.570;27.832;2023-06-22T06:46:25;99340.16;;;31.06;74.52
9717;BME280;4897;43.570;27.832;2023-06-22T06:48:52;99349.00;;;30.31;84.66
9717;BME280;4897;43.570;27.832;2023-06-22T06:51:19;99205.16;;;28.78;86.71
9717;BME280;4897;43.570;27.832;2023-06-22T06:53:46;99358.72;;;29.28;99.30
9717;BME280;4897;43.570;27.832;2023-06-22T06:56:15;99330.00;;;28.72;98.62
9717;BME280;4897;43.570;27.832;2023-06-22T06:58:42;99370.22;;;28.62;100.00
9717;BME280;4897;43.570;27.832;2023-06-22T07:01:10;99375.47;;;28.52;100.00
9717;BME280;4897;43.570;27.832;2023-06-22T07:03:37;99371.66;;;28.41;100.00
9717;BME280;4897;43.570;27.832;2023-06-22T07:06:04;99366.25;;;28.46;100.00
9717;BME280;4897;43.570;27.832;2023-06-22T07:08:31;99362.78;;;28.27;100.00
9717;BME280;4897;43.570;27.832;2023-06-22T07:10:58;99366.75;;;28.20;100.00
9717;BME280;4897;43.570;27.832;2023-06-22T07:13:27;99375.97;;;28.37;100.00
9717;BME280;4897;43.570;27.832;2023-06-22T07:15:55;99367.72;;;28.37;100.00
9717;BME280;4897;43.570;27.832;2023-06-22T07:18:22;99368.28;;;28.27;100.00
9717;BME280;4897;43.570;27.832;2023-06-22T07:20:48;99369.47;;;28.31;100.00
9717;BME280;4897;43.570;27.832;2023-06-22T07:23:16;99366.50;;;28.33;100.00
9717;BME280;4897;43.570;27.832;2023-06-22T07:25:43;99375.13;;;28.36;100.00
9717;BME280;4897;43.570;27.832;2023-06-22T07:28:10;99371.28;;;28.26;100.00
9717;BME280;4897;43.570;27.832;2023-06-22T07:30:38;99372.72;;;28.28;100.00
9717;BME280;4897;43.570;27.832;2023-06-22T07:33:05;99364.22;;;28.41;100.00
9717;BME280;4897;43.570;27.832;2023-06-22T07:35:33;99367.66;;;28.83;100.00
9717;BME280;4897;43.570;27.832;2023-06-22T07:38:00;99373.53;;;29.66;94.45
9717;BME280;4897;43.570;27.832;2023-06-22T07:40:27;99372.44;;;31.05;73.32
9717;BME280;4897;43.570;27.832;2023-06-22T07:42:54;99368.06;;;32.84;58.46
9717;BME280;4897;43.570;27.832;2023-06-22T07:45:21;99367.84;;;33.78;54.11
9717;BME280;4897;43.570;27.832;2023-06-22T07:47:50;99367.94;;;34.23;50.77
9717;BME280;4897;43.570;27.832;2023-06-22T07:50:17;99359.31;;;34.40;51.64
9717;BME280;4897;43.570;27.832;2023-06-22T07:52:44;99365.38;;;34.57;49.60
9717;BME280;4897;43.570;27.832;2023-06-22T07:55:11;99374.84;;;34.46;49.93
9717;BME280;4897;43.570;27.832;2023-06-22T07:57:38;99349.00;;;35.40;44.13
9717;BME280;4897;43.570;27.832;2023-06-22T08:00:08;99359.66;;;35.22;45.93
9717;BME280;4897;43.570;27.832;2023-06-22T08:02:39;99346.69;;;36.29;44.16
9717;BME280;4897;43.570;27.832;2023-06-22T08:05:08;99310.19;;;36.59;43.04
9717;BME280;4897;43.570;27.832;2023-06-22T08:07:35;99364.56;;;35.94;42.49
9717;BME280;4897;43.570;27.832;2023-06-22T08:10:04;99351.56;;;35.75;43.77
9717;BME280;4897;43.570;27.832;2023-06-22T08:12:31;99347.56;;;36.58;43.07
9717;BME280;4897;43.570;27.832;2023-06-22T08:14:58;99340.47;;;36.95;41.49
9717;BME280;4897;43.570;27.832;2023-06-22T08:17:25;99354.00;;;37.67;40.65
9717;BME280;4897;43.570;27.832;2023-06-22T08:19:52;99352.13;;;37.44;38.56
9717;BME280;4897;43.570;27.832;2023-06-22T08:22:20;99345.28;;;37.55;39.70
9717;BME280;4897;43.570;27.832;2023-06-22T08:24:47;99357.03;;;36.81;40.85
9717;BME280;4897;43.570;27.832;2023-06-22T08:27:14;99354.91;;;36.73;41.39
9717;BME280;4897;43.570;27.832;2023-06-22T08:29:47;99354.16;;;36.67;42.00
9717;BME280;4897;43.570;27.832;2023-06-22T08:32:23;99330.75;;;37.34;40.40
9717;BME280;4897;43.570;27.832;2023-06-22T08:34:49;99347.19;;;38.29;38.49
9717;BME280;4897;43.570;27.832;2023-06-22T08:37:16;99343.56;;;38.88;37.31
9717;BME280;4897;43.570;27.832;2023-06-22T08:39:47;99362.34;;;39.77;36.35
9717;BME280;4897;43.570;27.832;2023-06-22T08:42:14;99358.28;;;39.34;36.50
9717;BME280;4897;43.570;27.832;2023-06-22T08:44:41;99365.41;;;37.28;38.79
9717;BME280;4897;43.570;27.832;2023-06-22T08:47:08;99333.97;;;37.23;38.98
9717;BME280;4897;43.570;27.832;2023-06-22T08:49:35;99345.34;;;37.26;38.98
9717;BME280;4897;43.570;27.832;2023-06-22T08:52:02;99336.63;;;38.99;36.69
9717;BME280;4897;43.570;27.832;2023-06-22T08:54:29;99330.38;;;39.78;35.82
9717;BME280;4897;43.570;27.832;2023-06-22T08:57:02;99345.13;;;37.84;37.74
9717;BME280;4897;43.570;27.832;2023-06-22T08:59:29;99353.69;;;36.84;39.25
9717;BME280;4897;43.570;27.832;2023-06-22T09:01:55;99355.78;;;35.18;42.43
9717;BME280;4897;43.570;27.832;2023-06-22T09:04:23;99349.44;;;35.03;43.36
9717;BME280;4897;43.570;27.832;2023-06-22T09:06:51;99349.53;;;35.47;42.89
9717;BME280;4897;43.570;27.832;2023-06-22T09:09:18;99346.59;;;36.44;40.88
9717;BME280;4897;43.570;27.832;2023-06-22T09:11:45;99360.97;;;34.46;44.23
9717;BME280;4897;43.570;27.832;2023-06-22T09:14:14;99367.63;;;34.65;44.97
9717;BME280;4897;43.570;27.832;2023-06-22T09:16:41;99356.34;;;35.69;41.88
9717;BME280;4897;43.570;27.832;2023-06-22T09:19:08;99357.16;;;35.75;41.36
9717;BME280;4897;43.570;27.832;2023-06-22T09:21:35;99353.22;;;34.13;45.54
9717;BME280;4897;43.570;27.832;2023-06-22T09:24:02;99355.41;;;33.86;47.83
9717;BME280;4897;43.570;27.832;2023-06-22T09:26:29;99355.41;;;34.41;47.27
9717;BME280;4897;43.570;27.832;2023-06-22T09:28:56;99345.03;;;37.09;40.52
9717;BME280;4897;43.570;27.832;2023-06-22T09:31:27;99339.22;;;39.09;36.74
9717;BME280;4897;43.570;27.832;2023-06-22T09:33:54;99335.44;;;40.34;34.57
9717;BME280;4897;43.570;27.832;2023-06-22T09:36:21;99345.63;;;41.31;32.69
9717;BME280;4897;43.570;27.832;2023-06-22T09:38:49;99347.63;;;40.91;33.05
9717;BME280;4897;43.570;27.832;2023-06-22T09:41:20;99346.97;;;38.98;34.92
9717;BME280;4897;43.570;27.832;2023-06-22T09:43:47;99347.81;;;39.75;34.34
9717;BME280;4897;43.570;27.832;2023-06-22T09:46:15;99328.91;;;41.17;32.71
9717;BME280;4897;43.570;27.832;2023-06-22T09:48:43;99341.44;;;41.68;31.72
9717;BME280;4897;43.570;27.832;2023-06-22T09:51:11;99337.66;;;39.03;33.97
9717;BME280;4897;43.570;27.832;2023-06-22T09:53:38;99345.25;;;37.36;36.53
9717;BME280;4897;43.570;27.832;2023-06-22T09:56:05;99325.03;;;39.68;33.77
9717;BME280;4897;43.570;27.832;2023-06-22T09:58:32;99343.66;;;41.31;31.94
9717;BME280;4897;43.570;27.832;2023-06-22T10:00:59;99340.09;;;39.45;34.07
9717;BME280;4897;43.570;27.832;2023-06-22T10:03:26;99346.38;;;37.91;36.34
9717;BME280;4897;43.570;27.832;2023-06-22T10:05:54;99353.16;;;36.53;37.55
9717;BME280;4897;43.570;27.832;2023-06-22T10:08:21;99354.41;;;37.79;36.25
9717;BME280;4897;43.570;27.832;2023-06-22T10:10:48;99361.81;;;40.11;32.58
9717;BME280;4897;43.570;27.832;2023-06-22T10:13:15;99350.19;;;40.79;32.16
9717;BME280;4897;43.570;27.832;2023-06-22T10:15:42;99352.84;;;41.80;31.09
9717;BME280;4897;43.570;27.832;2023-06-22T10:18:12;99324.31;;;42.50;28.47
9717;BME280;4897;43.570;27.832;2023-06-22T10:20:39;99342.06;;;42.97;27.74
9717;BME280;4897;43.570;27.832;2023-06-22T10:23:07;99334.63;;;43.50;27.35
9717;BME280;4897;43.570;27.832;2023-06-22T10:25:34;99334.22;;;44.22;26.92
9717;BME280;4897;43.570;27.832;2023-06-22T10:28:01;99315.09;;;44.40;26.17
9717;BME280;4897;43.570;27.832;2023-06-22T10:30:28;99323.50;;;42.41;27.75
9717;BME280;4897;43.570;27.832;2023-06-22T10:32:55;99333.25;;;39.87;30.01
9717;BME280;4897;43.570;27.832;2023-06-22T10:35:22;99333.84;;;38.72;31.09
9717;BME280;4897;43.570;27.832;2023-06-22T10:37:49;99335.00;;;37.88;32.04
9717;BME280;4897;43.570;27.832;2023-06-22T10:40:18;99335.53;;;37.71;31.61
9717;BME280;4897;43.570;27.832;2023-06-22T10:42:45;99299.13;;;39.13;30.50
9717;BME280;4897;43.570;27.832;2023-06-22T10:45:12;99332.19;;;39.97;30.51
9717;BME280;4897;43.570;27.832;2023-06-22T10:47:39;99313.88;;;41.13;29.12
9717;BME280;4897;43.570;27.832;2023-06-22T10:50:08;99319.72;;;42.37;27.97
9717;BME280;4897;43.570;27.832;2023-06-22T10:52:35;99314.88;;;41.17;28.67
9717;BME280;4897;43.570;27.832;2023-06-22T10:55:02;99281.75;;;41.96;28.54
9717;BME280;4897;43.570;27.832;2023-06-22T10:57:30;99306.19;;;41.96;29.04
9717;BME280;4897;43.570;27.832;2023-06-22T10:59:57;99300.13;;;40.33;30.00
9717;BME280;4897;43.570;27.832;2023-06-22T11:02:24;99323.81;;;40.49;30.20
9717;BME280;4897;43.570;27.832;2023-06-22T11:04:53;99297.81;;;39.82;30.66
9717;BME280;4897;43.570;27.832;2023-06-22T11:07:20;99314.97;;;40.03;30.98
9717;BME280;4897;43.570;27.832;2023-06-22T11:09:47;99309.13;;;40.44;30.58
9717;BME280;4897;43.570;27.832;2023-06-22T11:12:17;99305.66;;;38.82;31.75
9717;BME280;4897;43.570;27.832;2023-06-22T11:14:45;99305.00;;;37.80;33.62
9717;BME280;4897;43.570;27.832;2023-06-22T11:17:12;99297.66;;;36.80;35.43
9717;BME280;4897;43.570;27.832;2023-06-22T11:19:39;99295.38;;;37.30;35.33
9717;BME280;4897;43.570;27.832;2023-06-22T11:22:06;99292.13;;;39.38;32.67
9717;BME280;4897;43.570;27.832;2023-06-22T11:24:33;99295.88;;;40.66;31.00
9717;BME280;4897;43.570;27.832;2023-06-22T11:27:00;99281.09;;;41.57;30.53
9717;BME280;4897;43.570;27.832;2023-06-22T11:29:27;99292.50;;;41.94;29.56
9717;BME280;4897;43.570;27.832;2023-06-22T11:31:58;99288.91;;;42.95;28.74
9717;BME280;4897;43.570;27.832;2023-06-22T11:34:25;99280.38;;;43.41;28.13
9717;BME280;4897;43.570;27.832;2023-06-22T11:36:53;99289.97;;;43.82;27.32
9717;BME280;4897;43.570;27.832;2023-06-22T11:39:20;99271.44;;;43.81;27.20
9717;BME280;4897;43.570;27.832;2023-06-22T11:41:47;99284.47;;;44.51;27.06
9717;BME280;4897;43.570;27.832;2023-06-22T11:44:14;99271.66;;;45.77;26.44
9717;BME280;4897;43.570;27.832;2023-06-22T11:46:41;99279.78;;;46.34;26.48
9717;BME280;4897;43.570;27.832;2023-06-22T11:49:09;99280.91;;;46.18;26.09
9717;BME280;4897;43.570;27.832;2023-06-22T11:51:36;99284.69;;;43.10;28.40
9717;BME280;4897;43.570;27.832;2023-06-22T11:54:03;99272.75;;;41.09;30.35
9717;BME280;4897;43.570;27.832;2023-06-22T11:56:30;99275.75;;;40.34;31.61
9717;BME280;4897;43.570;27.832;2023-06-22T11:58:57;99269.88;;;41.74;29.92
9717;BME280;4897;43.570;27.832;2023-06-22T12:01:24;99246.56;;;41.73;29.90
9717;BME280;4897;43.570;27.832;2023-06-22T12:03:51;99262.56;;;42.70;29.28
9717;BME280;4897;43.570;27.832;2023-06-22T12:06:19;99258.31;;;43.64;28.09
9717;BME280;4897;43.570;27.832;2023-06-22T12:08:46;99249.06;;;41.49;29.44
9717;BME280;4897;43.570;27.832;2023-06-22T12:11:13;99269.41;;;39.98;31.20
9717;BME280;4897;43.570;27.832;2023-06-22T12:13:40;99258.44;;;38.80;32.76
9717;BME280;4897;43.570;27.832;2023-06-22T12:16:07;99276.94;;;37.34;34.06
9717;BME280;4897;43.570;27.832;2023-06-22T12:18:34;99268.03;;;36.42;36.29
9717;BME280;4897;43.570;27.832;2023-06-22T12:21:01;99257.81;;;37.04;35.03
9717;BME280;4897;43.570;27.832;2023-06-22T12:23:29;99277.59;;;37.26;34.72
9717;BME280;4897;43.570;27.832;2023-06-22T12:25:56;99279.38;;;37.17;33.27
9717;BME280;4897;43.570;27.832;2023-06-22T12:28:23;99270.22;;;37.35;34.13
9717;BME280;4897;43.570;27.832;2023-06-22T12:30:50;99274.00;;;37.44;34.42
9717;BME280;4897;43.570;27.832;2023-06-22T12:33:17;99263.00;;;36.92;42.90
9717;BME280;4897;43.570;27.832;2023-06-22T12:35:45;99271.56;;;35.90;50.72
9717;BME280;4897;43.570;27.832;2023-06-22T12:38:14;99271.91;;;35.50;56.13
9717;BME280;4897;43.570;27.832;2023-06-22T12:40:42;99278.13;;;34.68;63.75
9717;BME280;4897;43.570;27.832;2023-06-22T12:43:09;99277.16;;;34.09;70.30
9717;BME280;4897;43.570;27.832;2023-06-22T12:45:36;99278.50;;;33.46;76.05
9717;BME280;4897;43.570;27.832;2023-06-22T12:48:03;99269.88;;;33.47;78.15
9717;BME280;4897;43.570;27.832;2023-06-22T12:50:30;99264.69;;;34.95;64.51
9717;BME280;4897;43.570;27.832;2023-06-22T12:52:57;99268.59;;;34.84;64.38
9717;BME280;4897;43.570;27.832;2023-06-22T12:55:25;99260.03;;;35.73;59.24
9717;BME280;4897;43.570;27.832;2023-06-22T12:57:53;99243.72;;;36.71;53.44
9717;BME280;4897;43.570;27.832;2023-06-22T13:00:21;99273.56;;;35.02;60.81
9717;BME280;4897;43.570;27.832;2023-06-22T13:02:48;99279.34;;;33.71;70.31
9717;BME280;4897;43.570;27.832;2023-06-22T13:05:15;99265.50;;;32.74;81.77
9717;BME280;4897;43.570;27.832;2023-06-22T13:07:42;99281.19;;;32.49;89.20